createdAt,value
2023-04-06T00:01:55.433Z,38.48
2023-04-06T00:04:22.260Z,38.58
2023-04-06T00:06:48.909Z,38.52
2023-04-06T00:09:15.781Z,38.42
2023-04-06T00:11:42.301Z,38.46
2023-04-06T00:14:08.894Z,38.63
2023-04-06T00:16:35.862Z,38.50
2023-04-06T00:19:02.448Z,38.67
2023-04-06T00:21:28.987Z,38.71
2023-04-06T00:23:55.654Z,38.70
2023-04-06T00:26:22.220Z,38.89
2023-04-06T00:28:48.736Z,38.90
2023-04-06T00:31:15.676Z,38.78
2023-04-06T00:33:42.161Z,39.02
2023-04-06T00:36:08.729Z,38.80
2023-04-06T00:38:35.231Z,38.99
2023-04-06T00:41:01.939Z,38.81
2023-04-06T00:43:28.527Z,38.72
2023-04-06T00:45:55.162Z,38.88
2023-04-06T00:48:21.792Z,38.85
2023-04-06T00:50:48.391Z,38.73
2023-04-06T00:53:14.891Z,39.12
2023-04-06T00:55:41.524Z,38.93
2023-04-06T00:58:08.576Z,39.21
2023-04-06T01:00:35.108Z,39.08
2023-04-06T01:03:02.300Z,39.23
2023-04-06T01:05:28.886Z,39.33
2023-04-06T01:07:55.467Z,39.40
2023-04-06T01:10:29.348Z,39.45
2023-04-06T01:12:55.939Z,39.10
2023-04-06T01:15:22.822Z,39.46
2023-04-06T01:17:49.353Z,39.11
2023-04-06T01:20:16.245Z,39.31
2023-04-06T01:22:42.746Z,39.57
2023-04-06T01:25:09.728Z,39.40
2023-04-06T01:27:36.364Z,39.43
2023-04-06T01:30:03.078Z,39.39
2023-04-06T01:32:29.607Z,39.45
2023-04-06T01:34:56.114Z,39.36
2023-04-06T01:37:22.676Z,39.25
2023-04-06T01:39:49.180Z,39.27
2023-04-06T01:42:15.712Z,39.50
2023-04-06T01:44:42.226Z,39.30
2023-04-06T01:47:08.733Z,39.30
2023-04-06T01:49:35.282Z,39.40
2023-04-06T01:52:01.811Z,39.61
2023-04-06T01:54:28.306Z,39.30
2023-04-06T01:56:54.826Z,39.50
2023-04-06T01:59:21.567Z,39.34
2023-04-06T02:01:48.168Z,39.41
2023-04-06T02:04:15.797Z,39.25
2023-04-06T02:06:42.317Z,39.55
2023-04-06T02:09:09.101Z,39.59
2023-04-06T02:11:36.599Z,39.41
2023-04-06T02:14:03.195Z,39.66
2023-04-06T02:16:29.773Z,39.74
2023-04-06T02:18:56.270Z,39.64
2023-04-06T02:21:22.810Z,39.42
2023-04-06T02:23:50.538Z,39.65
2023-04-06T02:26:17.152Z,39.38
2023-04-06T02:28:43.766Z,39.48
2023-04-06T02:31:10.517Z,39.53
2023-04-06T02:33:37.104Z,39.64
2023-04-06T02:36:03.871Z,39.55
2023-04-06T02:38:30.464Z,39.48
2023-04-06T02:40:56.964Z,39.58
2023-04-06T02:43:23.500Z,39.74
2023-04-06T02:45:50.065Z,39.69
2023-04-06T02:48:16.691Z,39.87
2023-04-06T02:50:43.268Z,39.91
2023-04-06T02:53:09.843Z,39.84
2023-04-06T02:55:36.391Z,39.79
2023-04-06T02:58:02.959Z,40.08
2023-04-06T03:00:29.551Z,40.09
2023-04-06T03:02:56.825Z,40.17
2023-04-06T03:05:23.445Z,40.01
2023-04-06T03:07:49.916Z,40.11
2023-04-06T03:10:16.701Z,40.22
2023-04-06T03:12:43.267Z,40.27
2023-04-06T03:15:10.123Z,40.00
2023-04-06T03:17:36.708Z,39.97
2023-04-06T03:20:03.574Z,40.22
2023-04-06T03:22:30.316Z,40.01
2023-04-06T03:24:56.896Z,40.43
2023-04-06T03:27:23.405Z,39.95
2023-04-06T03:29:49.935Z,40.01
2023-04-06T03:32:16.651Z,40.34
2023-04-06T03:34:43.156Z,39.98
2023-04-06T03:37:10.711Z,39.95
2023-04-06T03:39:37.658Z,40.06
2023-04-06T03:42:04.277Z,40.02
2023-04-06T03:44:30.929Z,40.36
2023-04-06T03:46:57.531Z,40.14
2023-04-06T03:49:24.093Z,40.14
2023-04-06T03:51:50.605Z,40.33
2023-04-06T03:54:17.181Z,40.37
2023-04-06T03:56:43.742Z,40.21
2023-04-06T03:59:10.638Z,40.31
2023-04-06T04:01:37.460Z,40.51
2023-04-06T04:04:04.410Z,40.26
2023-04-06T04:06:31.244Z,40.59
2023-04-06T04:08:57.717Z,40.47
2023-04-06T04:11:24.265Z,40.58
2023-04-06T04:13:50.760Z,40.63
2023-04-06T04:16:17.311Z,40.68
2023-04-06T04:18:44.848Z,40.64
2023-04-06T04:21:11.408Z,40.72
2023-04-06T04:23:37.919Z,40.66
2023-04-06T04:26:04.539Z,40.71
2023-04-06T04:28:31.103Z,40.38
2023-04-06T04:30:57.572Z,40.38
2023-04-06T04:33:24.096Z,40.70
2023-04-06T04:35:50.706Z,40.84
2023-04-06T04:38:17.245Z,40.82
2023-04-06T04:40:43.764Z,40.58
2023-04-06T04:43:10.461Z,40.82
2023-04-06T04:45:37.017Z,40.72
2023-04-06T04:48:03.652Z,40.79
2023-04-06T04:50:30.494Z,40.62
2023-04-06T04:52:56.991Z,40.72
2023-04-06T04:55:23.525Z,40.65
2023-04-06T04:57:50.024Z,40.64
2023-04-06T05:00:16.716Z,40.67
2023-04-06T05:02:43.256Z,40.88
2023-04-06T05:05:10.088Z,40.85
2023-04-06T05:07:36.840Z,41.02
2023-04-06T05:10:03.423Z,41.03
2023-04-06T05:12:29.978Z,41.14
2023-04-06T05:14:56.502Z,41.08
2023-04-06T05:17:23.023Z,40.88
2023-04-06T05:19:49.723Z,40.92
2023-04-06T05:22:18.669Z,41.22
2023-04-06T05:24:45.232Z,41.04
2023-04-06T05:27:11.776Z,41.23
2023-04-06T05:29:38.336Z,41.24
2023-04-06T05:32:05.080Z,41.07
2023-04-06T05:34:31.829Z,41.08
2023-04-06T05:36:58.337Z,41.15
2023-04-06T05:39:24.897Z,41.34
2023-04-06T05:41:51.460Z,41.10
2023-04-06T05:44:18.022Z,41.15
2023-04-06T05:46:44.628Z,41.37
2023-04-06T05:49:11.442Z,41.45
2023-04-06T05:51:38.324Z,41.58
2023-04-06T05:54:04.861Z,41.71
2023-04-06T05:56:32.955Z,41.75
2023-04-06T05:58:59.529Z,41.80
2023-04-06T06:01:26.386Z,41.74
2023-04-06T06:03:52.917Z,41.86
2023-04-06T06:06:19.421Z,41.91
2023-04-06T06:08:47.189Z,41.80
2023-04-06T06:11:13.765Z,41.65
2023-04-06T06:13:40.562Z,42.09
2023-04-06T06:16:07.210Z,42.09
2023-04-06T06:18:33.873Z,41.98
2023-04-06T06:21:00.382Z,42.23
2023-04-06T06:23:27.514Z,42.34
2023-04-06T06:25:54.248Z,42.05
2023-04-06T06:28:20.852Z,42.47
2023-04-06T06:30:47.381Z,42.44
2023-04-06T06:33:13.869Z,42.22
2023-04-06T06:35:40.458Z,42.59
2023-04-06T06:38:06.957Z,42.63
2023-04-06T06:40:34.214Z,42.64
2023-04-06T06:43:00.927Z,42.71
2023-04-06T06:45:27.534Z,42.82
2023-04-06T06:47:55.670Z,43.71
2023-04-06T06:50:22.607Z,44.69
2023-04-06T06:52:49.145Z,46.01
2023-04-06T06:55:16.513Z,46.52
2023-04-06T06:57:43.639Z,46.58
2023-04-06T07:00:12.891Z,46.55
2023-04-06T07:02:40.951Z,45.78
2023-04-06T07:05:24.287Z,45.87
2023-04-06T07:07:54.866Z,45.63
2023-04-06T07:10:21.687Z,45.14
2023-04-06T07:12:48.323Z,44.68
2023-04-06T07:15:14.935Z,44.00
2023-04-06T07:17:46.545Z,43.50
2023-04-06T07:20:13.569Z,42.89
2023-04-06T07:22:40.464Z,42.91
2023-04-06T07:25:07.254Z,42.60
2023-04-06T07:27:33.822Z,42.25
2023-04-06T07:30:00.553Z,42.14
2023-04-06T07:32:27.265Z,41.43
2023-04-06T07:34:53.871Z,41.06
2023-04-06T07:37:20.713Z,40.95
2023-04-06T07:39:47.660Z,40.92
2023-04-06T07:42:14.177Z,40.32
2023-04-06T07:44:40.737Z,40.32
2023-04-06T07:47:07.296Z,39.85
2023-04-06T07:49:34.103Z,38.43
2023-04-06T07:52:00.768Z,38.42
2023-04-06T07:54:27.439Z,38.23
2023-04-06T07:56:54.002Z,38.92
2023-04-06T07:59:20.571Z,38.79
2023-04-06T08:01:47.129Z,39.23
2023-04-06T08:04:13.890Z,37.97
2023-04-06T08:06:42.209Z,38.50
2023-04-06T08:09:08.772Z,38.47
2023-04-06T08:11:35.522Z,37.78
2023-04-06T08:14:02.320Z,36.60
2023-04-06T08:16:28.821Z,37.61
2023-04-06T08:18:55.370Z,36.93
2023-04-06T08:21:21.984Z,37.23
2023-04-06T08:23:48.540Z,36.20
2023-04-06T08:26:15.171Z,37.21
2023-04-06T08:28:41.876Z,37.15
2023-04-06T08:31:08.598Z,36.69
2023-04-06T08:33:40.347Z,37.01
2023-04-06T08:36:10.984Z,36.22
2023-04-06T08:38:37.580Z,36.73
2023-04-06T08:41:13.969Z,36.91
2023-04-06T08:43:59.853Z,35.76
2023-04-06T08:46:32.513Z,35.94
2023-04-06T08:48:59.979Z,35.45
2023-04-06T08:51:27.697Z,36.22
2023-04-06T08:53:57.666Z,36.54
2023-04-06T08:56:24.982Z,35.89
2023-04-06T08:58:52.919Z,36.00
2023-04-06T09:01:26.802Z,35.70
2023-04-06T09:03:56.949Z,36.14
2023-04-06T09:06:23.689Z,35.75
2023-04-06T09:08:50.362Z,35.82
2023-04-06T09:11:16.997Z,34.86
2023-04-06T09:13:47.505Z,35.83
2023-04-06T09:16:14.396Z,35.52
2023-04-06T09:18:41.199Z,36.23
2023-04-06T09:21:08.219Z,35.41
2023-04-06T09:23:35.048Z,35.28
2023-04-06T09:26:08.977Z,34.52
2023-04-06T09:28:42.470Z,33.10
2023-04-06T09:31:11.045Z,32.80
2023-04-06T09:33:45.349Z,34.47
2023-04-06T09:36:12.543Z,34.59
2023-04-06T09:38:39.786Z,33.67
2023-04-06T09:41:06.767Z,34.51
2023-04-06T09:43:33.346Z,34.56
2023-04-06T09:46:01.543Z,34.68
2023-04-06T09:48:30.135Z,35.05
2023-04-06T09:51:00.533Z,34.69
2023-04-06T09:53:28.363Z,34.81
2023-04-06T09:55:58.638Z,34.12
2023-04-06T09:58:27.604Z,32.57
2023-04-06T10:01:07.182Z,32.82
2023-04-06T10:03:40.081Z,32.21
2023-04-06T10:06:12.104Z,32.04
2023-04-06T10:08:43.950Z,33.34
2023-04-06T10:11:11.773Z,33.50
2023-04-06T10:13:38.559Z,32.58
2023-04-06T10:16:05.430Z,32.59
2023-04-06T10:18:32.049Z,32.25
2023-04-06T20:31:17.583Z,31.35
2023-04-06T20:33:44.133Z,31.75
2023-04-06T20:36:11.826Z,31.48
2023-04-06T20:38:38.410Z,31.50
2023-04-06T20:41:07.726Z,31.56
2023-04-06T20:43:35.740Z,31.68
2023-04-06T20:46:02.783Z,31.98
2023-04-06T20:48:33.480Z,31.87
2023-04-06T20:51:01.408Z,31.76
2023-04-06T20:53:27.989Z,31.92
2023-04-06T20:55:54.857Z,31.95
2023-04-06T20:58:21.522Z,32.21
2023-04-06T21:00:50.667Z,32.20
2023-04-06T21:03:18.145Z,31.94
2023-04-06T21:05:51.941Z,32.00
2023-04-06T21:08:18.690Z,32.10
2023-04-06T21:10:45.436Z,32.13
2023-04-06T21:13:12.110Z,32.55
2023-04-06T21:15:38.677Z,32.38
2023-04-06T21:18:05.666Z,32.54
2023-04-06T21:20:32.316Z,32.58
2023-04-06T21:22:58.829Z,32.43
2023-04-06T21:25:25.405Z,32.77
2023-04-06T21:27:52.373Z,32.63
2023-04-06T21:30:18.991Z,32.75
2023-04-06T21:32:45.492Z,32.68
2023-04-06T21:35:12.023Z,32.97
2023-04-06T21:37:38.503Z,32.65
2023-04-06T21:40:05.889Z,32.74
2023-04-06T21:42:32.484Z,32.94
2023-04-06T21:44:59.785Z,32.79
2023-04-06T21:47:26.664Z,32.90
2023-04-06T21:49:53.201Z,33.25
2023-04-06T21:52:19.689Z,33.27
2023-04-06T21:54:46.160Z,33.00
2023-04-06T21:57:13.680Z,33.19
2023-04-06T21:59:40.653Z,33.07
2023-04-06T22:02:07.241Z,33.14
2023-04-06T22:04:34.000Z,33.19
2023-04-06T22:07:00.790Z,33.17
2023-04-06T22:09:27.263Z,33.35
2023-04-06T22:11:53.797Z,33.60
2023-04-06T22:14:20.638Z,33.34
2023-04-06T22:16:47.414Z,33.40
2023-04-06T22:19:14.021Z,33.72
2023-04-06T22:21:40.648Z,33.72
2023-04-06T22:24:07.177Z,33.84
2023-04-06T22:26:33.640Z,33.51
2023-04-06T22:29:00.098Z,33.72
2023-04-06T22:31:27.349Z,33.57
2023-04-06T22:33:53.843Z,33.84
2023-04-06T22:36:20.668Z,33.59
2023-04-06T22:38:49.418Z,33.63
2023-04-06T22:41:15.944Z,33.70
2023-04-06T22:43:42.538Z,33.63
2023-04-06T22:46:08.991Z,33.86
2023-04-06T22:48:35.461Z,33.80
2023-04-06T22:51:01.958Z,34.21
2023-04-06T22:53:28.488Z,34.12
2023-04-06T22:55:55.010Z,33.82
2023-04-06T22:58:21.476Z,33.90
2023-04-06T23:00:47.937Z,34.25
2023-04-06T23:03:14.631Z,34.13
2023-04-06T23:05:41.305Z,34.05
2023-04-06T23:08:07.800Z,34.29
2023-04-06T23:10:34.311Z,34.22
2023-04-06T23:13:00.939Z,34.11
2023-04-06T23:15:27.463Z,34.14
2023-04-06T23:17:53.968Z,34.07
2023-04-06T23:20:20.709Z,34.25
2023-04-06T23:22:47.190Z,34.47
2023-04-06T23:25:13.672Z,34.38
2023-04-06T23:27:40.122Z,34.37
2023-04-06T23:30:06.981Z,34.44
2023-04-06T23:32:33.576Z,34.27
2023-04-06T23:35:00.205Z,34.41
2023-04-06T23:37:27.390Z,34.46
2023-04-06T23:39:53.888Z,34.67
2023-04-06T23:42:20.511Z,34.64
2023-04-06T23:44:47.508Z,34.74
2023-04-06T23:47:14.047Z,34.82
2023-04-06T23:49:40.563Z,34.46
2023-04-06T23:52:07.260Z,34.42
2023-04-06T23:54:33.712Z,34.74
2023-04-06T23:57:00.193Z,34.64
2023-04-06T23:59:26.799Z,34.58
